Time;durP1;ratioP1;P1;durP2;ratioP2;P2;SDS_P1;SDS_P2;PMS_P1;PMS_P2;Temp;Humidity;BMP_temperature;BMP_pressure;BME280_temperature;BME280_humidity;BME280_pressure;Samples;Min_cycle;Max_cycle;Signal;HPM_P1;HPM_P2
2021/04/05 00:02:20;;;;;;;5.60;5.07;;;29.90;90.10;;;;;;5087786;28;21023;-48
2021/04/05 00:04:50;;;;;;;13.68;5.30;;;29.90;90.20;;;;;;5087193;28;20200;-48
2021/04/05 00:07:21;;;;;;;6.07;5.15;;;29.90;90.10;;;;;;5071306;28;20239;-47
2021/04/05 00:09:51;;;;;;;4.78;4.38;;;29.90;90.20;;;;;;5086583;28;20706;-52
2021/04/05 00:12:21;;;;;;;5.35;4.85;;;29.90;90.30;;;;;;5086589;28;20201;-48
2021/04/05 00:14:53;;;;;;;6.65;5.95;;;30.00;90.40;;;;;;5086998;28;20197;-48
2021/04/05 00:17:24;;;;;;;6.05;5.55;;;30.00;90.20;;;;;;5086255;28;20276;-50
2021/04/05 00:19:55;;;;;;;6.22;5.72;;;30.00;90.10;;;;;;5071691;28;20581;-47
2021/04/05 00:22:25;;;;;;;5.85;5.35;;;30.00;90.20;;;;;;5071927;28;20240;-49
2021/04/05 00:24:55;;;;;;;5.30;4.82;;;30.00;90.20;;;;;;5070772;28;20213;-49
2021/04/05 00:27:26;;;;;;;6.53;4.63;;;30.10;90.30;;;;;;5071189;28;20669;-47
2021/04/05 00:29:56;;;;;;;7.03;5.32;;;30.10;90.20;;;;;;5083993;28;20300;-48
2021/04/05 00:32:28;;;;;;;5.03;4.65;;;30.10;90.20;;;;;;5071286;28;20212;-53
2021/04/05 00:34:58;;;;;;;6.00;5.50;;;30.10;90.10;;;;;;5086049;28;20208;-47
2021/04/05 00:37:29;;;;;;;6.00;5.50;;;30.20;90.20;;;;;;5073974;28;20229;-47
2021/04/05 00:39:59;;;;;;;7.60;6.80;;;30.20;90.20;;;;;;5085377;28;20736;-53
2021/04/05 00:42:29;;;;;;;6.25;5.68;;;30.20;90.00;;;;;;5071294;28;20216;-48
2021/04/05 00:44:59;;;;;;;7.05;6.35;;;30.20;89.90;;;;;;5071237;28;20313;-48
2021/04/05 00:47:31;;;;;;;6.70;6.00;;;30.30;89.60;;;;;;5032270;28;20245;-47
2021/04/05 00:50:02;;;;;;;6.07;5.57;;;30.30;89.60;;;;;;5028415;28;20639;-48
2021/04/05 00:52:32;;;;;;;7.30;6.60;;;30.40;89.70;;;;;;5028617;28;20314;-47
2021/04/05 00:55:02;;;;;;;6.97;6.28;;;30.40;89.70;;;;;;5040285;28;20287;-47
2021/04/05 00:57:35;;;;;;;7.10;6.32;;;30.40;89.20;;;;;;5028106;28;20221;-48
2021/04/05 01:00:08;;;;;;;7.55;6.93;;;30.50;89.10;;;;;;5034157;28;20248;-52
2021/04/05 01:02:40;;;;;;;5.97;5.40;;;30.60;88.40;;;;;;5040919;28;20698;-46
2021/04/05 01:05:12;;;;;;;6.90;6.32;;;30.60;88.50;;;;;;5028866;28;20339;-46
2021/04/05 01:07:43;;;;;;;6.72;6.13;;;30.70;88.00;;;;;;5028266;28;20741;-47
2021/04/05 01:10:13;;;;;;;6.78;6.03;;;30.70;87.80;;;;;;5028056;28;20219;-48
2021/04/05 01:12:44;;;;;;;6.15;5.35;;;30.80;87.60;;;;;;5028234;28;20756;-46
2021/04/05 01:15:16;;;;;;;5.65;5.18;;;30.90;87.40;;;;;;5044069;28;20947;-49
2021/04/05 01:17:50;;;;;;;5.88;5.38;;;31.00;86.70;;;;;;5050422;28;20213;-48
2021/04/05 01:20:20;;;;;;;5.97;5.47;;;31.00;86.40;;;;;;5076914;28;20724;-52
2021/04/05 01:22:52;;;;;;;6.25;5.65;;;31.00;85.70;;;;;;5071163;28;20659;-50
2021/04/05 01:25:22;;;;;;;5.53;5.03;;;31.10;85.20;;;;;;5071151;28;20282;-49
2021/04/05 01:27:53;;;;;;;5.30;4.90;;;31.20;85.20;;;;;;5083533;28;20252;-49
2021/04/05 01:30:34;;;;;;;5.47;4.97;;;31.20;84.70;;;;;;5079110;28;20279;-49
2021/04/05 01:33:08;;;;;;;5.82;5.32;;;31.20;84.50;;;;;;5043173;28;20230;-48
2021/04/05 01:35:41;;;;;;;5.85;5.20;;;31.30;84.20;;;;;;5032101;28;20243;-50
2021/04/05 01:38:12;;;;;;;6.30;5.57;;;31.30;84.00;;;;;;5040626;28;20202;-49
2021/04/05 01:40:44;;;;;;;5.45;5.00;;;31.40;84.10;;;;;;5030156;28;20696;-49
2021/04/05 01:43:14;;;;;;;5.97;5.38;;;31.40;84.10;;;;;;5031546;28;20211;-47
2021/04/05 01:45:45;;;;;;;5.60;5.10;;;31.40;83.70;;;;;;5043698;28;20444;-52
2021/04/05 01:48:15;;;;;;;5.65;5.18;;;31.40;83.70;;;;;;5045540;28;20266;-48
2021/04/05 01:50:45;;;;;;;6.05;5.53;;;31.50;83.40;;;;;;5046804;28;20206;-50
2021/04/05 01:53:18;;;;;;;5.97;5.47;;;31.50;83.20;;;;;;5038342;28;20211;-47
2021/04/05 01:55:49;;;;;;;5.28;4.85;;;31.60;82.90;;;;;;5031298;28;20282;-48
2021/04/05 01:58:19;;;;;;;9.48;8.68;;;31.60;82.80;;;;;;5031175;28;20210;-52
2021/04/05 02:00:49;;;;;;;7.88;7.18;;;31.60;82.80;;;;;;5030767;28;20206;-49
2021/04/05 02:03:20;;;;;;;7.75;7.00;;;31.60;82.80;;;;;;5040900;28;20209;-50
2021/04/05 02:05:54;;;;;;;7.47;6.13;;;31.70;82.60;;;;;;5071202;28;20209;-47
2021/04/05 02:08:25;;;;;;;6.93;6.22;;;31.70;82.40;;;;;;5033368;28;20296;-49
2021/04/05 02:10:56;;;;;;;8.15;7.35;;;31.70;82.50;;;;;;5044940;28;20237;-49
2021/04/05 02:13:26;;;;;;;7.50;6.78;;;31.70;82.30;;;;;;5040200;28;20214;-48
2021/04/05 02:15:57;;;;;;;6.57;5.97;;;31.80;82.50;;;;;;5047296;28;20285;-48
2021/04/05 02:18:29;;;;;;;7.68;6.70;;;31.80;82.90;;;;;;5031112;28;20313;-49
2021/04/05 02:21:00;;;;;;;6.97;6.28;;;31.80;82.90;;;;;;5032682;28;20229;-52
2021/04/05 02:23:31;;;;;;;7.03;6.43;;;31.80;82.90;;;;;;5031269;28;20619;-48
2021/04/05 02:26:08;;;;;;;8.32;7.53;;;31.80;83.20;;;;;;5044248;28;20221;-48
2021/04/05 02:28:44;;;;;;;7.93;7.22;;;31.90;83.40;;;;;;5045339;28;20256;-51
2021/04/05 02:31:14;;;;;;;6.75;6.20;;;31.90;83.30;;;;;;5044628;28;20194;-48
2021/04/05 02:33:45;;;;;;;6.68;5.97;;;31.90;83.30;;;;;;5045560;28;20272;-51
2021/04/05 02:36:18;;;;;;;7.65;7.00;;;31.90;83.40;;;;;;5045915;28;20269;-48
2021/04/05 02:38:51;;;;;;;10.48;9.50;;;31.90;83.50;;;;;;5050828;28;20255;-50
2021/04/05 02:41:21;;;;;;;11.82;10.48;;;31.90;83.50;;;;;;5069108;28;20206;-49
2021/04/05 02:43:52;;;;;;;11.23;10.10;;;32.00;83.60;;;;;;5069664;28;20861;-52
2021/04/05 02:46:25;;;;;;;11.70;10.68;;;31.90;83.50;;;;;;5070364;28;20247;-50
2021/04/05 02:48:55;;;;;;;9.45;8.55;;;32.00;83.60;;;;;;5047190;28;20240;-50
2021/04/05 02:51:25;;;;;;;8.05;7.32;;;32.00;83.90;;;;;;5047431;28;20272;-51
2021/04/05 02:53:58;;;;;;;8.23;6.78;;;31.90;83.80;;;;;;5047679;28;20218;-50
2021/04/05 02:56:29;;;;;;;7.38;6.60;;;31.90;83.40;;;;;;5041803;28;20609;-48
2021/04/05 02:58:59;;;;;;;6.25;5.70;;;31.90;83.30;;;;;;5047509;28;20208;-46
2021/04/05 03:01:29;;;;;;;7.82;6.40;;;31.80;83.60;;;;;;5047427;28;20910;-46
2021/04/05 03:04:00;;;;;;;7.22;6.47;;;31.80;84.30;;;;;;5046423;28;20415;-48
2021/04/05 03:06:30;;;;;;;8.13;6.85;;;31.80;84.80;;;;;;5047537;28;20665;-48
2021/04/05 03:09:04;;;;;;;8.02;7.22;;;31.80;85.50;;;;;;5047564;28;20318;-47
2021/04/05 03:11:36;;;;;;;9.00;8.20;;;31.70;85.90;;;;;;5022716;28;20218;-50
2021/04/05 03:14:09;;;;;;;8.05;7.25;;;31.70;86.40;;;;;;5024205;28;20654;-52
2021/04/05 03:16:40;;;;;;;8.82;6.72;;;31.70;86.90;;;;;;5020455;28;20206;-51
2021/04/05 03:19:11;;;;;;;7.05;6.43;;;31.70;87.40;;;;;;5026444;28;20233;-49
2021/04/05 03:21:44;;;;;;;8.38;7.63;;;31.70;88.00;;;;;;5052819;28;20208;-47
2021/04/05 03:24:16;;;;;;;9.93;8.50;;;31.70;88.20;;;;;;5051044;28;20202;-49
2021/04/05 03:26:46;;;;;;;9.57;8.57;;;31.70;87.90;;;;;;5050413;28;20214;-51
2021/04/05 03:29:16;;;;;;;11.70;10.55;;;31.70;87.60;;;;;;5050679;28;20214;-48
2021/04/05 03:31:47;;;;;;;11.43;9.30;;;31.70;87.70;;;;;;5049845;28;20296;-48
2021/04/05 03:34:20;;;;;;;10.70;9.60;;;31.70;87.90;;;;;;5064975;28;20205;-50
2021/04/05 03:36:52;;;;;;;9.48;8.30;;;31.60;87.90;;;;;;5064846;28;20245;-51
2021/04/05 03:39:24;;;;;;;7.97;7.20;;;31.60;88.00;;;;;;5027653;28;20207;-48
2021/04/05 03:41:57;;;;;;;7.10;6.57;;;31.60;88.30;;;;;;5025835;28;20211;-50
2021/04/05 03:44:32;;;;;;;8.50;7.35;;;31.60;88.40;;;;;;5027411;28;20230;-49
2021/04/05 03:47:06;;;;;;;11.93;9.20;;;31.60;88.30;;;;;;5027025;28;20217;-50
2021/04/05 03:49:39;;;;;;;9.30;7.47;;;31.70;88.10;;;;;;5027910;28;20209;-49
2021/04/05 03:52:11;;;;;;;8.32;7.63;;;31.70;87.80;;;;;;5027124;28;20206;-47
2021/04/05 03:54:46;;;;;;;10.43;9.43;;;31.80;87.80;;;;;;5026974;28;20233;-49
2021/04/05 03:57:17;;;;;;;10.23;8.45;;;31.80;86.50;;;;;;5026634;28;20198;-47
2021/04/05 03:59:50;;;;;;;9.13;8.35;;;31.80;85.70;;;;;;5026779;28;20307;-51
2021/04/05 04:02:22;;;;;;;8.80;8.00;;;31.90;85.60;;;;;;5027051;28;20249;-52
2021/04/05 04:04:58;;;;;;;9.60;8.73;;;31.90;85.90;;;;;;5017193;28;20217;-49
2021/04/05 04:07:30;;;;;;;9.88;9.02;;;31.90;84.80;;;;;;4965222;28;20704;-49
2021/04/05 04:10:02;;;;;;;9.88;8.98;;;31.90;84.70;;;;;;4964341;28;20208;-50
2021/04/05 04:12:33;;;;;;;10.35;9.32;;;32.00;84.50;;;;;;4959486;28;20220;-51
2021/04/05 04:15:08;;;;;;;8.55;7.72;;;32.00;83.60;;;;;;4963548;28;20207;-50
2021/04/05 04:17:38;;;;;;;9.32;8.20;;;32.00;83.20;;;;;;4965316;28;20577;-49
2021/04/05 04:20:11;;;;;;;7.60;6.82;;;31.90;82.90;;;;;;4966032;28;20287;-49
2021/04/05 04:22:42;;;;;;;7.38;6.75;;;31.90;83.20;;;;;;4930324;29;20222;-50
2021/04/05 04:25:17;;;;;;;10.20;9.05;;;31.90;83.50;;;;;;4931435;29;21046;-49
2021/04/05 04:27:48;;;;;;;12.23;11.02;;;31.90;84.10;;;;;;4929746;29;20222;-50
2021/04/05 04:30:31;;;;;;;11.25;10.13;;;31.90;84.10;;;;;;4927672;29;20210;-48
2021/04/05 04:33:02;;;;;;;9.85;8.85;;;31.90;84.20;;;;;;4934953;29;20202;-48
2021/04/05 04:35:32;;;;;;;9.18;7.95;;;31.90;84.20;;;;;;4951440;28;20247;-50
2021/04/05 04:38:03;;;;;;;10.18;9.23;;;31.90;84.60;;;;;;4992750;28;20549;-51
2021/04/05 04:40:35;;;;;;;8.02;7.38;;;31.90;85.20;;;;;;5040334;28;20217;-48
2021/04/05 04:43:06;;;;;;;7.40;6.80;;;31.80;85.40;;;;;;5043662;28;20223;-47
2021/04/05 04:45:36;;;;;;;7.07;6.35;;;31.80;85.30;;;;;;5044255;28;20256;-48
2021/04/05 04:48:07;;;;;;;6.88;6.18;;;31.80;85.30;;;;;;5042915;28;20234;-47
2021/04/05 04:50:38;;;;;;;7.53;6.90;;;31.80;85.50;;;;;;5028306;28;20357;-47
2021/04/05 04:53:08;;;;;;;7.55;6.85;;;31.70;85.60;;;;;;5029033;28;20234;-47
2021/04/05 04:55:39;;;;;;;8.98;8.13;;;31.70;85.90;;;;;;5028290;28;20194;-47
2021/04/05 04:58:11;;;;;;;7.93;7.20;;;31.70;86.50;;;;;;5024281;28;20245;-47
2021/04/05 05:00:41;;;;;;;9.10;8.20;;;31.70;86.60;;;;;;5042731;28;20293;-47
2021/04/05 05:03:12;;;;;;;9.50;8.27;;;31.60;86.60;;;;;;5048474;28;20205;-48
2021/04/05 05:05:42;;;;;;;8.35;7.60;;;31.60;86.70;;;;;;5061755;28;20288;-49
2021/04/05 05:08:12;;;;;;;8.07;7.18;;;31.50;86.80;;;;;;5067802;28;20665;-49
2021/04/05 05:10:44;;;;;;;10.18;9.27;;;31.50;87.30;;;;;;5055259;28;20263;-50
2021/04/05 05:13:15;;;;;;;9.23;8.32;;;31.40;87.60;;;;;;5062100;28;21646;-49
2021/04/05 05:15:45;;;;;;;11.02;9.63;;;31.30;87.70;;;;;;5060862;28;20212;-47
2021/04/05 05:18:16;;;;;;;11.15;9.93;;;31.30;88.20;;;;;;5057552;28;20202;-48
2021/04/05 05:20:46;;;;;;;11.77;9.57;;;31.20;88.40;;;;;;5067340;28;20208;-49
2021/04/05 05:23:17;;;;;;;12.43;11.15;;;31.20;88.60;;;;;;5070681;28;20239;-46
2021/04/05 05:25:49;;;;;;;9.88;8.95;;;31.10;88.90;;;;;;5049977;28;20264;-49
2021/04/05 05:28:20;;;;;;;9.90;9.00;;;31.10;89.40;;;;;;5046960;28;20226;-48
2021/04/05 05:30:51;;;;;;;13.68;12.15;;;31.00;89.30;;;;;;5032600;28;20214;-47
2021/04/05 05:33:24;;;;;;;11.20;9.93;;;31.00;89.60;;;;;;5030767;28;20821;-48
2021/04/05 05:35:54;;;;;;;11.98;10.82;;;30.90;90.20;;;;;;5033991;28;20968;-49
2021/04/05 05:38:24;;;;;;;12.27;10.43;;;30.90;89.90;;;;;;5039143;28;20290;-47
2021/04/05 05:40:56;;;;;;;10.65;9.23;;;30.80;90.00;;;;;;5027647;28;20214;-47
2021/04/05 05:43:33;;;;;;;12.15;10.68;;;30.80;90.10;;;;;;5031827;28;20202;-48
2021/04/05 05:46:10;;;;;;;15.25;12.27;;;30.80;90.30;;;;;;5031081;28;20261;-49
2021/04/05 05:49:15;;;;;;;14.80;13.07;;;30.80;90.40;;;;;;5031546;28;20274;-47
2021/04/05 05:52:07;;;;;;;15.02;13.02;;;30.70;90.90;;;;;;5052429;28;20306;-47
2021/04/05 05:55:12;;;;;;;11.48;10.07;;;30.70;91.30;;;;;;5060610;28;20205;-48
2021/04/05 05:57:46;;;;;;;12.30;9.35;;;30.60;91.30;;;;;;5067512;28;20224;-50
2021/04/05 06:00:20;;;;;;;8.65;7.85;;;30.50;91.00;;;;;;5053258;28;20193;-53
2021/04/05 06:02:58;;;;;;;9.15;7.72;;;30.50;90.80;;;;;;5070308;28;20214;-49
2021/04/05 06:05:34;;;;;;;7.85;6.95;;;30.40;90.90;;;;;;5070853;28;20298;-51
2021/04/05 06:08:13;;;;;;;7.38;6.68;;;30.40;90.70;;;;;;5069074;28;20237;-48
2021/04/05 06:10:49;;;;;;;6.72;6.10;;;30.40;90.80;;;;;;5067145;28;20245;-49
2021/04/05 06:13:32;;;;;;;7.65;5.38;;;30.40;90.80;;;;;;5068838;28;20284;-47
2021/04/05 06:16:17;;;;;;;7.03;6.43;;;30.40;90.90;;;;;;5070441;28;20644;-47
2021/04/05 06:54:05;;;;;;;4.85;4.55;;;28.60;92.60;;;;;;5126591;27;21196;-48
2021/04/05 06:56:45;;;;;;;4.63;4.22;;;29.10;94.20;;;;;;5126169;28;20187;-51
2021/04/05 06:59:24;;;;;;;4.10;3.72;;;29.40;93.90;;;;;;5081268;28;21067;-52
2021/04/05 07:02:09;;;;;;;4.40;4.10;;;29.60;93.50;;;;;;5080227;28;20209;-49
2021/04/05 07:04:50;;;;;;;4.30;3.90;;;29.80;93.20;;;;;;5083256;28;20224;-49
2021/04/05 07:07:26;;;;;;;4.65;4.10;;;30.00;93.00;;;;;;5042172;28;20643;-49
2021/04/05 07:10:06;;;;;;;4.75;4.35;;;30.20;92.80;;;;;;5003046;28;20305;-49
2021/04/05 07:12:54;;;;;;;5.50;5.00;;;30.30;93.00;;;;;;5000230;28;20658;-50
2021/04/05 07:15:38;;;;;;;4.85;4.38;;;30.50;92.60;;;;;;4998581;28;20636;-52
2021/04/05 07:18:32;;;;;;;4.72;4.32;;;30.60;92.40;;;;;;4961972;28;20672;-49
2021/04/05 07:21:15;;;;;;;5.65;4.78;;;30.70;92.20;;;;;;4963530;28;20267;-51
2021/04/05 07:24:30;;;;;;;5.28;4.88;;;30.90;92.30;;;;;;4943403;29;20753;-49
2021/04/05 07:27:03;;;;;;;5.68;5.18;;;31.00;92.20;;;;;;4910995;29;20725;-50
2021/04/05 07:29:42;;;;;;;5.55;4.97;;;31.10;91.80;;;;;;4946100;28;20236;-54
2021/04/05 07:32:20;;;;;;;5.88;5.38;;;31.10;91.30;;;;;;4986977;28;20309;-51
2021/04/05 07:34:59;;;;;;;5.43;4.93;;;31.20;91.20;;;;;;5024473;28;20214;-51
2021/04/05 07:37:53;;;;;;;5.43;5.03;;;31.30;91.30;;;;;;5035945;28;20205;-52
2021/04/05 07:40:42;;;;;;;6.15;5.55;;;31.40;91.30;;;;;;5040869;28;20221;-51
2021/04/05 07:43:29;;;;;;;5.47;4.97;;;31.50;90.90;;;;;;5073325;28;20238;-49
2021/04/05 07:46:10;;;;;;;6.65;6.05;;;31.50;90.80;;;;;;5020855;28;20722;-49
2021/04/05 07:48:42;;;;;;;6.32;5.72;;;31.60;90.60;;;;;;5048975;28;20217;-48
2021/04/05 07:51:16;;;;;;;5.65;5.22;;;31.60;90.50;;;;;;5069056;28;20212;-49
2021/04/05 07:53:53;;;;;;;6.15;5.65;;;31.60;90.40;;;;;;5059274;28;20218;-48
2021/04/05 07:56:26;;;;;;;5.70;5.22;;;31.70;90.50;;;;;;5053200;28;20630;-50
2021/04/05 07:59:04;;;;;;;5.40;4.93;;;31.70;90.40;;;;;;5064063;28;20197;-48
2021/04/05 08:01:41;;;;;;;5.93;5.43;;;31.70;90.30;;;;;;5049519;28;21054;-48
2021/04/05 08:04:17;;;;;;;6.20;5.70;;;31.80;90.00;;;;;;5052646;28;20277;-49
2021/04/05 08:06:53;;;;;;;5.90;5.38;;;31.80;89.00;;;;;;5061772;28;20241;-50
2021/04/05 08:09:26;;;;;;;6.72;6.13;;;31.80;88.90;;;;;;5051680;28;20214;-49
2021/04/05 08:12:10;;;;;;;5.10;4.70;;;31.80;87.80;;;;;;5049709;28;20277;-48
2021/04/05 08:14:45;;;;;;;5.75;5.22;;;31.70;88.40;;;;;;5052395;28;20652;-48
2021/04/05 08:17:24;;;;;;;6.25;5.65;;;31.70;88.70;;;;;;5051995;28;20411;-48
2021/04/05 08:19:58;;;;;;;5.90;5.40;;;31.70;88.90;;;;;;5056661;28;20299;-48
2021/04/05 08:22:35;;;;;;;5.38;4.97;;;31.70;89.00;;;;;;5029937;28;20237;-49
2021/04/05 08:25:12;;;;;;;5.55;5.07;;;31.70;89.00;;;;;;5030050;28;20286;-50
2021/04/05 08:27:47;;;;;;;5.93;5.35;;;31.70;89.10;;;;;;5043623;28;20658;-48
2021/04/05 08:30:22;;;;;;;7.10;5.93;;;31.70;88.80;;;;;;5028962;28;20281;-52
2021/04/05 08:33:02;;;;;;;5.60;5.10;;;31.80;88.40;;;;;;5032529;28;20203;-51
2021/04/05 08:35:41;;;;;;;6.43;5.90;;;31.80;88.60;;;;;;5037679;28;20642;-48
2021/04/05 08:38:22;;;;;;;6.95;5.65;;;31.80;89.00;;;;;;5080697;28;20193;-50
2021/04/05 08:40:55;;;;;;;6.43;5.13;;;31.80;88.60;;;;;;5075223;28;20193;-48
2021/04/05 08:43:31;;;;;;;5.57;5.15;;;31.90;88.80;;;;;;5068876;28;20327;-50
2021/04/05 08:46:11;;;;;;;6.78;5.78;;;31.90;88.80;;;;;;5041948;28;20198;-50
2021/04/05 08:48:43;;;;;;;6.10;5.50;;;32.00;88.20;;;;;;5077127;28;20280;-50
2021/04/05 08:51:16;;;;;;;5.65;5.15;;;32.10;88.10;;;;;;5087763;28;20208;-49
2021/04/05 08:53:49;;;;;;;6.72;6.22;;;32.20;88.20;;;;;;5087286;28;20798;-49
2021/04/05 08:56:20;;;;;;;5.85;5.35;;;32.20;86.90;;;;;;5072751;28;20230;-50
2021/04/05 08:58:53;;;;;;;5.50;5.00;;;32.40;87.10;;;;;;5088043;28;20309;-49
2021/04/05 09:01:37;;;;;;;5.72;5.22;;;32.50;86.70;;;;;;5087980;28;20287;-48
2021/04/05 09:04:08;;;;;;;6.00;5.50;;;32.60;86.20;;;;;;5070432;28;20692;-48
2021/04/05 09:06:42;;;;;;;5.63;5.13;;;32.70;86.20;;;;;;5070869;28;20200;-48
2021/04/05 09:09:12;;;;;;;7.05;5.80;;;32.80;85.10;;;;;;5076974;28;20205;-51
2021/04/05 09:11:42;;;;;;;6.07;5.57;;;32.90;83.40;;;;;;5073983;28;20292;-48
2021/04/05 09:14:15;;;;;;;6.10;5.60;;;33.00;82.30;;;;;;5069960;28;20276;-51
2021/04/05 09:17:21;;;;;;;5.55;5.05;;;33.10;81.80;;;;;;5089207;28;20227;-50
2021/04/05 09:20:34;;;;;;;6.07;5.57;;;33.10;81.90;;;;;;5091769;28;20193;-51
2021/04/05 09:23:34;;;;;;;5.03;4.57;;;33.20;82.10;;;;;;5069704;28;20232;-51
2021/04/05 09:26:46;;;;;;;5.15;4.72;;;33.20;81.60;;;;;;5051565;28;20193;-48
2021/04/05 09:29:26;;;;;;;4.78;4.43;;;33.30;81.80;;;;;;4964566;28;20591;-51
2021/04/05 09:32:27;;;;;;;4.82;4.43;;;33.40;81.30;;;;;;5004655;28;20222;-48
2021/04/05 09:35:33;;;;;;;5.00;4.60;;;33.40;81.40;;;;;;5010803;28;20221;-50
2021/04/05 09:38:24;;;;;;;5.68;5.18;;;33.40;81.50;;;;;;5024536;28;20269;-48
2021/04/05 09:41:19;;;;;;;5.13;4.72;;;33.50;81.20;;;;;;5026678;28;20213;-49
2021/04/05 09:44:36;;;;;;;5.13;4.72;;;33.60;81.00;;;;;;5014848;28;20226;-51
2021/04/05 09:47:36;;;;;;;7.00;5.07;;;33.60;80.60;;;;;;5036887;28;20906;-48
2021/04/05 09:50:11;;;;;;;4.95;4.55;;;33.70;80.90;;;;;;5048586;28;20261;-48
2021/04/05 09:53:24;;;;;;;4.78;4.38;;;33.80;80.60;;;;;;5019910;28;20232;-51
2021/04/05 09:55:59;;;;;;;4.55;4.20;;;33.80;81.00;;;;;;4987584;28;20212;-48
2021/04/05 09:58:31;;;;;;;5.78;5.28;;;33.80;80.50;;;;;;5060988;28;20653;-50
2021/04/05 10:01:05;;;;;;;5.43;4.93;;;33.80;80.20;;;;;;5066662;28;20213;-50
2021/04/05 10:03:43;;;;;;;4.95;4.63;;;33.80;80.00;;;;;;5065496;28;20197;-48
2021/04/05 10:06:13;;;;;;;5.93;5.43;;;33.80;79.70;;;;;;5066682;28;20197;-51
2021/04/05 10:08:45;;;;;;;5.90;5.40;;;33.80;79.40;;;;;;5066925;28;20235;-49
2021/04/05 10:11:16;;;;;;;5.55;5.15;;;33.80;79.30;;;;;;5066484;28;20260;-48
2021/04/05 10:13:48;;;;;;;5.68;5.18;;;33.80;78.70;;;;;;5065265;28;20257;-48
2021/04/05 10:16:22;;;;;;;5.25;4.85;;;33.70;78.40;;;;;;5066240;28;20236;-48
2021/04/05 10:18:53;;;;;;;6.40;5.85;;;33.60;78.20;;;;;;5066724;28;20213;-50
2021/04/05 10:21:24;;;;;;;6.38;5.78;;;33.50;78.30;;;;;;5066521;28;20290;-53
2021/04/05 10:23:57;;;;;;;6.15;5.55;;;33.50;78.40;;;;;;5079644;28;20216;-50
2021/04/05 10:26:31;;;;;;;6.07;5.57;;;33.40;78.40;;;;;;5094243;28;20207;-53
2021/04/05 10:29:02;;;;;;;5.05;4.65;;;33.40;78.50;;;;;;5103905;28;20229;-54
2021/04/05 10:31:33;;;;;;;5.38;4.88;;;33.30;78.90;;;;;;5097378;28;20196;-50
2021/04/05 10:34:06;;;;;;;4.72;4.32;;;33.30;79.50;;;;;;5093094;28;20185;-50
2021/04/05 10:36:40;;;;;;;5.70;5.20;;;33.20;79.50;;;;;;5094014;28;21403;-48
2021/04/05 10:39:12;;;;;;;6.70;6.15;;;33.20;79.50;;;;;;5091229;28;20207;-51
2021/04/05 10:41:46;;;;;;;5.95;5.53;;;33.20;79.70;;;;;;5094015;28;20268;-51
2021/04/05 10:44:17;;;;;;;5.82;5.32;;;33.10;79.80;;;;;;5105621;28;20269;-50
2021/04/05 10:46:50;;;;;;;6.10;5.60;;;33.10;79.90;;;;;;5065588;28;20609;-51
2021/04/05 10:49:20;;;;;;;5.82;5.30;;;33.10;80.20;;;;;;5065549;28;20288;-53
2021/04/05 10:51:51;;;;;;;6.07;5.57;;;33.10;80.70;;;;;;5026253;28;20583;-51
2021/04/05 10:54:25;;;;;;;9.05;5.68;;;33.00;80.60;;;;;;5026171;28;20214;-53
2021/04/05 10:56:57;;;;;;;5.80;5.30;;;33.00;80.40;;;;;;5025138;28;20559;-49
2021/04/05 10:59:46;;;;;;;5.25;4.75;;;33.00;80.40;;;;;;5015998;28;20192;-48
2021/04/05 11:02:23;;;;;;;5.22;4.40;;;33.00;80.60;;;;;;5006673;28;20222;-48
2021/04/05 11:04:57;;;;;;;6.88;5.35;;;32.90;81.20;;;;;;5009584;28;20200;-53
2021/04/05 11:07:27;;;;;;;5.72;5.22;;;32.90;82.80;;;;;;5010831;28;20618;-48
2021/04/05 11:10:00;;;;;;;5.55;5.07;;;32.80;81.90;;;;;;5026110;28;20249;-48
2021/04/05 11:12:32;;;;;;;5.43;4.93;;;32.80;82.20;;;;;;5085158;28;20224;-49
2021/04/05 11:15:04;;;;;;;5.78;5.15;;;32.80;82.30;;;;;;5025821;28;20887;-50
2021/04/05 11:17:35;;;;;;;5.68;5.07;;;32.80;82.50;;;;;;4966439;28;20259;-53
2021/04/05 11:20:06;;;;;;;5.32;4.88;;;32.70;82.60;;;;;;4967368;28;20702;-50
2021/04/05 11:22:36;;;;;;;5.47;4.93;;;32.70;82.60;;;;;;4982601;28;20805;-49
2021/04/05 11:25:09;;;;;;;5.53;5.03;;;32.70;82.90;;;;;;5006144;28;20219;-52
2021/04/05 11:27:41;;;;;;;5.47;4.97;;;32.70;83.00;;;;;;5005177;28;20203;-54
2021/04/05 11:30:22;;;;;;;5.97;5.40;;;32.60;83.10;;;;;;5009809;28;20218;-54
2021/04/05 11:32:53;;;;;;;5.60;5.13;;;32.60;83.30;;;;;;5010076;28;20246;-51
2021/04/05 11:35:30;;;;;;;5.85;5.35;;;32.60;83.60;;;;;;5009596;28;20997;-50
2021/04/05 11:38:02;;;;;;;6.03;5.53;;;32.50;84.60;;;;;;5007957;28;20326;-53
2021/04/05 11:40:33;;;;;;;5.75;5.25;;;32.50;83.80;;;;;;5008448;28;20199;-47
2021/04/05 11:43:03;;;;;;;5.28;4.78;;;32.50;83.90;;;;;;5008042;28;20799;-53
2021/04/05 11:45:35;;;;;;;5.63;5.13;;;32.40;84.00;;;;;;5025824;28;20812;-52
2021/04/05 11:48:07;;;;;;;5.72;5.22;;;32.40;84.30;;;;;;5065302;28;20197;-52
2021/04/05 11:50:37;;;;;;;5.50;5.00;;;32.40;84.40;;;;;;5092632;28;20234;-55
2021/04/05 11:53:08;;;;;;;5.75;5.28;;;32.30;84.50;;;;;;5094133;28;20233;-52
2021/04/05 11:55:41;;;;;;;5.82;5.32;;;32.30;84.70;;;;;;5093979;28;20641;-52
2021/04/05 11:58:15;;;;;;;7.90;7.20;;;32.30;85.00;;;;;;5094195;28;20192;-51
2021/04/05 12:00:47;;;;;;;6.65;6.05;;;32.30;85.00;;;;;;5093135;28;20188;-52
2021/04/05 12:03:21;;;;;;;6.88;6.30;;;32.20;85.00;;;;;;5102556;28;20196;-54
2021/04/05 12:05:58;;;;;;;7.25;6.63;;;32.20;85.30;;;;;;5050819;28;20356;-49
2021/04/05 12:08:31;;;;;;;5.90;5.35;;;32.20;85.90;;;;;;5051623;28;20198;-51
2021/04/05 12:11:05;;;;;;;6.15;5.53;;;32.10;85.80;;;;;;5064663;28;20189;-50
2021/04/05 12:13:41;;;;;;;8.57;7.55;;;32.10;86.10;;;;;;5063812;28;20797;-53
2021/04/05 12:16:12;;;;;;;8.73;7.82;;;32.00;86.20;;;;;;5062838;28;20197;-53
2021/04/05 12:18:43;;;;;;;8.82;7.93;;;32.00;86.00;;;;;;5028273;28;20290;-51
2021/04/05 12:21:14;;;;;;;8.00;7.18;;;32.00;86.10;;;;;;5013326;28;20293;-53
2021/04/05 12:23:44;;;;;;;7.63;6.93;;;32.00;86.30;;;;;;5028724;28;20191;-50
2021/04/05 12:26:16;;;;;;;7.10;6.50;;;31.90;86.40;;;;;;5028720;28;20229;-50
2021/04/05 12:28:46;;;;;;;8.07;6.80;;;31.90;86.80;;;;;;5028521;28;20199;-49
2021/04/05 12:31:17;;;;;;;8.57;7.75;;;31.90;86.90;;;;;;5060240;28;20208;-48
2021/04/05 12:33:57;;;;;;;7.15;6.50;;;31.80;87.10;;;;;;5051350;28;20226;-53
2021/04/05 12:36:33;;;;;;;7.55;6.93;;;31.80;87.20;;;;;;5054280;28;20233;-49
2021/04/05 12:39:03;;;;;;;7.25;6.07;;;31.80;87.60;;;;;;5053720;28;20216;-51
2021/04/05 12:41:38;;;;;;;6.28;5.78;;;31.80;87.30;;;;;;5050957;28;20369;-48
2021/04/05 12:44:11;;;;;;;7.07;6.43;;;31.70;87.60;;;;;;5085996;28;20565;-48
2021/04/05 12:46:42;;;;;;;7.82;7.07;;;31.70;87.40;;;;;;5094694;28;20554;-49
2021/04/05 12:49:13;;;;;;;8.40;6.90;;;31.70;87.30;;;;;;5096122;28;20232;-51
2021/04/05 12:51:43;;;;;;;8.32;7.28;;;31.70;87.30;;;;;;5095526;28;20722;-49
2021/04/05 12:54:13;;;;;;;9.38;6.68;;;31.60;87.30;;;;;;5049705;28;20276;-50
2021/04/05 12:56:45;;;;;;;8.10;6.60;;;31.60;87.40;;;;;;5049584;28;20255;-48
2021/04/05 12:59:16;;;;;;;7.68;6.65;;;31.60;87.60;;;;;;5031653;28;20213;-53
2021/04/05 13:01:53;;;;;;;7.70;6.97;;;31.50;87.60;;;;;;5011564;28;20208;-51
2021/04/05 13:04:25;;;;;;;8.35;7.55;;;31.50;87.70;;;;;;5011285;28;20214;-48
2021/04/05 13:06:58;;;;;;;9.20;8.32;;;31.50;87.80;;;;;;5010124;28;20192;-50
2021/04/05 13:09:32;;;;;;;9.35;7.10;;;31.50;87.90;;;;;;5009928;28;20213;-49
2021/04/05 13:12:05;;;;;;;7.57;6.82;;;31.50;88.00;;;;;;5005583;28;20207;-50
2021/04/05 13:14:36;;;;;;;8.32;7.30;;;31.40;88.20;;;;;;4994097;28;20243;-52
2021/04/05 13:17:08;;;;;;;8.68;7.90;;;31.40;88.10;;;;;;5007889;28;20215;-49
2021/04/05 13:19:40;;;;;;;8.57;7.78;;;31.40;87.70;;;;;;5007601;28;20258;-50
2021/04/05 13:22:13;;;;;;;8.95;7.97;;;31.30;88.30;;;;;;4968153;28;20296;-48
2021/04/05 13:24:46;;;;;;;8.07;7.28;;;31.30;88.50;;;;;;4979561;28;20207;-49
2021/04/05 13:27:22;;;;;;;8.18;7.30;;;31.30;88.50;;;;;;4943920;29;20406;-48
2021/04/05 13:29:52;;;;;;;8.07;7.35;;;31.30;88.80;;;;;;4961908;28;20711;-49
2021/04/05 13:32:26;;;;;;;9.75;6.85;;;31.30;88.80;;;;;;4987476;28;20335;-49
2021/04/05 13:35:01;;;;;;;9.85;7.28;;;31.20;89.00;;;;;;4987871;28;20204;-49
2021/04/05 13:37:31;;;;;;;8.60;7.63;;;31.20;89.20;;;;;;5004870;28;20210;-48
2021/04/05 13:40:01;;;;;;;11.73;7.63;;;31.20;89.10;;;;;;5007793;28;20199;-49
2021/04/05 13:42:33;;;;;;;9.20;8.07;;;31.10;89.10;;;;;;5007463;28;20223;-50
2021/04/05 13:45:09;;;;;;;8.70;7.90;;;31.20;89.50;;;;;;5006660;28;20646;-51
2021/04/05 13:47:44;;;;;;;9.13;8.30;;;31.10;89.80;;;;;;5006363;28;20233;-51
2021/04/05 13:50:14;;;;;;;10.68;8.73;;;31.10;89.70;;;;;;5006826;28;20203;-49
2021/04/05 13:52:47;;;;;;;9.07;8.27;;;31.10;89.70;;;;;;5024689;28;20237;-51
2021/04/05 13:55:21;;;;;;;9.70;7.72;;;31.10;90.00;;;;;;5006098;28;20273;-52
2021/04/05 13:57:54;;;;;;;8.52;7.60;;;31.10;90.00;;;;;;5026287;28;20593;-50
2021/04/05 14:00:25;;;;;;;8.48;7.63;;;31.00;90.00;;;;;;5066750;28;20225;-52